sensor_id;sensor_type;location;lat;lon;timestamp;temperature;humidity
65404;DHT22;52014;52.088;5.096;2023-02-28T00:00:13;4.00;99.90
65404;DHT22;52014;52.088;5.096;2023-02-28T00:02:39;4.00;99.90
65404;DHT22;52014;52.088;5.096;2023-02-28T00:05:05;4.00;99.90
65404;DHT22;52014;52.088;5.096;2023-02-28T00:07:32;4.00;99.90
65404;DHT22;52014;52.088;5.096;2023-02-28T00:09:57;4.00;99.90
65404;DHT22;52014;52.088;5.096;2023-02-28T00:12:23;4.00;99.90
65404;DHT22;52014;52.088;5.096;2023-02-28T00:14:49;4.00;99.90
65404;DHT22;52014;52.088;5.096;2023-02-28T00:17:14;4.10;99.90
65404;DHT22;52014;52.088;5.096;2023-02-28T00:19:40;4.00;99.90
65404;DHT22;52014;52.088;5.096;2023-02-28T00:22:05;4.00;99.90
65404;DHT22;52014;52.088;5.096;2023-02-28T00:24:31;4.10;99.90
65404;DHT22;52014;52.088;5.096;2023-02-28T00:26:56;4.00;99.90
65404;DHT22;52014;52.088;5.096;2023-02-28T00:29:22;4.10;99.90
65404;DHT22;52014;52.088;5.096;2023-02-28T00:31:47;4.10;99.90
65404;DHT22;52014;52.088;5.096;2023-02-28T00:34:12;4.10;99.90
65404;DHT22;52014;52.088;5.096;2023-02-28T00:36:38;4.10;99.90
65404;DHT22;52014;52.088;5.096;2023-02-28T00:39:04;4.10;99.90
65404;DHT22;52014;52.088;5.096;2023-02-28T00:41:29;4.10;99.90
65404;DHT22;52014;52.088;5.096;2023-02-28T00:43:54;4.10;99.90
65404;DHT22;52014;52.088;5.096;2023-02-28T00:46:20;4.10;99.90
65404;DHT22;52014;52.088;5.096;2023-02-28T00:48:45;4.10;99.90
65404;DHT22;52014;52.088;5.096;2023-02-28T00:51:11;4.10;99.90
65404;DHT22;52014;52.088;5.096;2023-02-28T00:53:36;4.20;99.90
65404;DHT22;52014;52.088;5.096;2023-02-28T00:56:02;4.20;99.90
65404;DHT22;52014;52.088;5.096;2023-02-28T00:58:28;4.20;99.90
65404;DHT22;52014;52.088;5.096;2023-02-28T01:00:54;4.20;99.90
65404;DHT22;52014;52.088;5.096;2023-02-28T01:03:20;4.20;99.90
65404;DHT22;52014;52.088;5.096;2023-02-28T01:05:45;4.20;99.90
65404;DHT22;52014;52.088;5.096;2023-02-28T01:08:11;4.20;99.90
65404;DHT22;52014;52.088;5.096;2023-02-28T01:10:37;4.20;99.90
65404;DHT22;52014;52.088;5.096;2023-02-28T01:13:03;4.20;99.90
65404;DHT22;52014;52.088;5.096;2023-02-28T01:15:29;4.30;99.90
65404;DHT22;52014;52.088;5.096;2023-02-28T01:17:54;4.20;99.90
65404;DHT22;52014;52.088;5.096;2023-02-28T01:20:19;4.30;99.90
65404;DHT22;52014;52.088;5.096;2023-02-28T01:22:45;4.30;99.90
65404;DHT22;52014;52.088;5.096;2023-02-28T01:25:11;4.30;99.90
65404;DHT22;52014;52.088;5.096;2023-02-28T01:27:37;4.30;99.90
65404;DHT22;52014;52.088;5.096;2023-02-28T01:30:05;4.20;99.90
65404;DHT22;52014;52.088;5.096;2023-02-28T01:32:30;4.30;99.90
65404;DHT22;52014;52.088;5.096;2023-02-28T01:34:56;4.30;99.90
65404;DHT22;52014;52.088;5.096;2023-02-28T01:37:21;4.30;99.90
65404;DHT22;52014;52.088;5.096;2023-02-28T01:39:47;4.20;99.90
65404;DHT22;52014;52.088;5.096;2023-02-28T01:42:12;4.20;99.90
65404;DHT22;52014;52.088;5.096;2023-02-28T01:47:22;4.30;99.90
65404;DHT22;52014;52.088;5.096;2023-02-28T01:49:48;4.30;99.90
65404;DHT22;52014;52.088;5.096;2023-02-28T01:52:13;4.30;99.90
65404;DHT22;52014;52.088;5.096;2023-02-28T01:54:48;4.30;99.90
65404;DHT22;52014;52.088;5.096;2023-02-28T01:57:16;4.30;99.90
65404;DHT22;52014;52.088;5.096;2023-02-28T01:59:43;4.30;99.90
65404;DHT22;52014;52.088;5.096;2023-02-28T02:02:17;4.30;99.90
65404;DHT22;52014;52.088;5.096;2023-02-28T02:04:56;4.40;99.90
65404;DHT22;52014;52.088;5.096;2023-02-28T02:07:23;4.30;99.90
65404;DHT22;52014;52.088;5.096;2023-02-28T02:09:50;4.30;99.90
65404;DHT22;52014;52.088;5.096;2023-02-28T02:12:32;4.40;99.90
65404;DHT22;52014;52.088;5.096;2023-02-28T02:15:05;4.30;99.90
65404;DHT22;52014;52.088;5.096;2023-02-28T02:17:37;4.40;99.90
65404;DHT22;52014;52.088;5.096;2023-02-28T02:22:55;4.40;99.90
65404;DHT22;52014;52.088;5.096;2023-02-28T02:33:10;4.40;99.90
65404;DHT22;52014;52.088;5.096;2023-02-28T02:38:11;4.40;99.90
65404;DHT22;52014;52.088;5.096;2023-02-28T02:40:43;4.40;99.90
65404;DHT22;52014;52.088;5.096;2023-02-28T02:43:15;4.40;99.90
65404;DHT22;52014;52.088;5.096;2023-02-28T02:48:09;4.40;99.90
65404;DHT22;52014;52.088;5.096;2023-02-28T02:50:45;4.40;99.90
65404;DHT22;52014;52.088;5.096;2023-02-28T02:53:11;4.40;99.90
65404;DHT22;52014;52.088;5.096;2023-02-28T02:55:39;4.40;99.90
65404;DHT22;52014;52.088;5.096;2023-02-28T02:58:07;4.40;99.90
65404;DHT22;52014;52.088;5.096;2023-02-28T03:00:36;4.40;99.90
65404;DHT22;52014;52.088;5.096;2023-02-28T03:03:02;4.40;99.90
65404;DHT22;52014;52.088;5.096;2023-02-28T03:05:35;4.40;99.90
65404;DHT22;52014;52.088;5.096;2023-02-28T03:08:04;4.40;99.90
65404;DHT22;52014;52.088;5.096;2023-02-28T03:15:32;4.50;99.90
65404;DHT22;52014;52.088;5.096;2023-02-28T03:18:10;4.50;99.90
65404;DHT22;52014;52.088;5.096;2023-02-28T03:23:48;4.50;99.90
65404;DHT22;52014;52.088;5.096;2023-02-28T03:26:19;4.40;99.90
65404;DHT22;52014;52.088;5.096;2023-02-28T03:28:50;4.40;99.90
65404;DHT22;52014;52.088;5.096;2023-02-28T03:33:47;4.50;99.90
65404;DHT22;52014;52.088;5.096;2023-02-28T03:36:20;4.50;99.90
65404;DHT22;52014;52.088;5.096;2023-02-28T03:38:51;4.50;99.90
65404;DHT22;52014;52.088;5.096;2023-02-28T03:41:21;4.50;99.90
65404;DHT22;52014;52.088;5.096;2023-02-28T03:43:51;4.50;99.90
65404;DHT22;52014;52.088;5.096;2023-02-28T03:46:18;4.50;99.90
65404;DHT22;52014;52.088;5.096;2023-02-28T03:48:49;4.40;99.90
65404;DHT22;52014;52.088;5.096;2023-02-28T03:51:17;4.50;99.90
65404;DHT22;52014;52.088;5.096;2023-02-28T03:53:45;4.50;99.90
65404;DHT22;52014;52.088;5.096;2023-02-28T03:56:14;4.50;99.90
65404;DHT22;52014;52.088;5.096;2023-02-28T03:58:42;4.50;99.90
65404;DHT22;52014;52.088;5.096;2023-02-28T04:01:11;4.50;99.90
65404;DHT22;52014;52.088;5.096;2023-02-28T04:03:38;4.50;99.90
65404;DHT22;52014;52.088;5.096;2023-02-28T04:06:04;4.50;99.90
65404;DHT22;52014;52.088;5.096;2023-02-28T04:08:30;4.50;99.90
65404;DHT22;52014;52.088;5.096;2023-02-28T04:10:58;4.50;99.90
65404;DHT22;52014;52.088;5.096;2023-02-28T04:13:26;4.50;99.90
65404;DHT22;52014;52.088;5.096;2023-02-28T04:15:51;4.50;99.90
65404;DHT22;52014;52.088;5.096;2023-02-28T04:18:17;4.50;99.90
65404;DHT22;52014;52.088;5.096;2023-02-28T04:20:42;4.50;99.90
65404;DHT22;52014;52.088;5.096;2023-02-28T04:23:08;4.50;99.90
65404;DHT22;52014;52.088;5.096;2023-02-28T04:25:33;4.50;99.90
65404;DHT22;52014;52.088;5.096;2023-02-28T04:27:58;4.50;99.90
65404;DHT22;52014;52.088;5.096;2023-02-28T04:30:24;4.50;99.90
65404;DHT22;52014;52.088;5.096;2023-02-28T04:32:49;4.50;99.90
65404;DHT22;52014;52.088;5.096;2023-02-28T04:35:15;4.50;99.90
65404;DHT22;52014;52.088;5.096;2023-02-28T04:37:40;4.50;99.90
65404;DHT22;52014;52.088;5.096;2023-02-28T04:40:06;4.50;99.90
65404;DHT22;52014;52.088;5.096;2023-02-28T04:42:32;4.60;99.90
65404;DHT22;52014;52.088;5.096;2023-02-28T04:45:01;4.50;99.90
65404;DHT22;52014;52.088;5.096;2023-02-28T04:47:27;4.50;99.90
65404;DHT22;52014;52.088;5.096;2023-02-28T04:49:52;4.50;99.90
65404;DHT22;52014;52.088;5.096;2023-02-28T04:52:18;4.50;99.90
65404;DHT22;52014;52.088;5.096;2023-02-28T04:54:43;4.50;99.90
65404;DHT22;52014;52.088;5.096;2023-02-28T04:57:09;4.40;99.90
65404;DHT22;52014;52.088;5.096;2023-02-28T04:59:34;4.40;99.90
65404;DHT22;52014;52.088;5.096;2023-02-28T05:02:00;4.30;99.90
65404;DHT22;52014;52.088;5.096;2023-02-28T05:04:25;4.30;99.90
65404;DHT22;52014;52.088;5.096;2023-02-28T05:06:51;4.30;99.90
65404;DHT22;52014;52.088;5.096;2023-02-28T05:09:16;4.20;99.90
65404;DHT22;52014;52.088;5.096;2023-02-28T05:11:41;4.00;99.90
65404;DHT22;52014;52.088;5.096;2023-02-28T05:14:13;4.10;99.90
65404;DHT22;52014;52.088;5.096;2023-02-28T05:16:39;4.00;99.90
65404;DHT22;52014;52.088;5.096;2023-02-28T05:19:04;3.90;99.90
65404;DHT22;52014;52.088;5.096;2023-02-28T05:21:31;3.90;99.90
65404;DHT22;52014;52.088;5.096;2023-02-28T05:23:58;4.00;99.90
65404;DHT22;52014;52.088;5.096;2023-02-28T05:26:24;4.00;99.90
65404;DHT22;52014;52.088;5.096;2023-02-28T05:28:49;4.10;99.90
65404;DHT22;52014;52.088;5.096;2023-02-28T05:31:15;4.00;99.90
65404;DHT22;52014;52.088;5.096;2023-02-28T05:33:40;4.00;99.90
65404;DHT22;52014;52.088;5.096;2023-02-28T05:36:06;4.00;99.90
65404;DHT22;52014;52.088;5.096;2023-02-28T05:38:31;4.00;99.90
65404;DHT22;52014;52.088;5.096;2023-02-28T05:40:57;4.00;99.90
65404;DHT22;52014;52.088;5.096;2023-02-28T05:43:22;4.00;99.90
65404;DHT22;52014;52.088;5.096;2023-02-28T05:45:48;3.80;99.90
65404;DHT22;52014;52.088;5.096;2023-02-28T05:48:14;3.90;99.90
65404;DHT22;52014;52.088;5.096;2023-02-28T05:50:39;3.80;99.90
65404;DHT22;52014;52.088;5.096;2023-02-28T05:53:06;3.80;99.90
65404;DHT22;52014;52.088;5.096;2023-02-28T05:55:31;3.80;99.90
65404;DHT22;52014;52.088;5.096;2023-02-28T05:57:56;3.70;99.90
65404;DHT22;52014;52.088;5.096;2023-02-28T06:00:22;3.60;99.90
65404;DHT22;52014;52.088;5.096;2023-02-28T06:02:47;3.70;99.90
65404;DHT22;52014;52.088;5.096;2023-02-28T06:05:14;3.70;99.90
65404;DHT22;52014;52.088;5.096;2023-02-28T06:07:40;3.60;99.90
65404;DHT22;52014;52.088;5.096;2023-02-28T06:10:06;3.70;99.90
65404;DHT22;52014;52.088;5.096;2023-02-28T06:12:31;3.60;99.90
65404;DHT22;52014;52.088;5.096;2023-02-28T06:14:57;3.70;99.90
65404;DHT22;52014;52.088;5.096;2023-02-28T06:17:22;3.70;99.90
65404;DHT22;52014;52.088;5.096;2023-02-28T06:19:47;3.50;99.90
65404;DHT22;52014;52.088;5.096;2023-02-28T06:22:13;3.30;99.90
65404;DHT22;52014;52.088;5.096;2023-02-28T06:24:38;3.40;99.90
65404;DHT22;52014;52.088;5.096;2023-02-28T06:27:04;3.30;99.90
65404;DHT22;52014;52.088;5.096;2023-02-28T06:29:33;3.30;99.90
65404;DHT22;52014;52.088;5.096;2023-02-28T06:31:59;3.40;99.90
65404;DHT22;52014;52.088;5.096;2023-02-28T06:34:25;3.50;99.90
65404;DHT22;52014;52.088;5.096;2023-02-28T06:36:51;3.30;99.90
65404;DHT22;52014;52.088;5.096;2023-02-28T06:39:16;3.40;99.90
65404;DHT22;52014;52.088;5.096;2023-02-28T06:41:42;3.40;99.90
65404;DHT22;52014;52.088;5.096;2023-02-28T06:44:16;3.40;99.90
65404;DHT22;52014;52.088;5.096;2023-02-28T06:46:42;3.50;99.90
65404;DHT22;52014;52.088;5.096;2023-02-28T06:49:09;3.40;99.90
65404;DHT22;52014;52.088;5.096;2023-02-28T06:51:35;3.40;99.90
65404;DHT22;52014;52.088;5.096;2023-02-28T06:54:00;3.40;99.90
65404;DHT22;52014;52.088;5.096;2023-02-28T06:56:26;3.40;99.90
65404;DHT22;52014;52.088;5.096;2023-02-28T06:58:51;3.40;99.90
65404;DHT22;52014;52.088;5.096;2023-02-28T07:01:21;3.50;99.90
65404;DHT22;52014;52.088;5.096;2023-02-28T07:03:48;3.50;99.90
65404;DHT22;52014;52.088;5.096;2023-02-28T07:06:18;3.50;99.90
65404;DHT22;52014;52.088;5.096;2023-02-28T07:08:43;3.50;99.90
65404;DHT22;52014;52.088;5.096;2023-02-28T07:11:10;3.50;99.90
65404;DHT22;52014;52.088;5.096;2023-02-28T07:13:35;3.50;99.90
65404;DHT22;52014;52.088;5.096;2023-02-28T07:16:03;3.50;99.90
65404;DHT22;52014;52.088;5.096;2023-02-28T07:18:29;3.50;99.90
65404;DHT22;52014;52.088;5.096;2023-02-28T07:20:55;3.50;99.90
65404;DHT22;52014;52.088;5.096;2023-02-28T07:23:21;3.60;99.90
65404;DHT22;52014;52.088;5.096;2023-02-28T07:25:46;3.60;99.90
65404;DHT22;52014;52.088;5.096;2023-02-28T07:28:12;3.60;99.90
65404;DHT22;52014;52.088;5.096;2023-02-28T07:30:38;3.60;99.90
65404;DHT22;52014;52.088;5.096;2023-02-28T07:33:03;3.70;99.90
65404;DHT22;52014;52.088;5.096;2023-02-28T07:35:29;3.70;99.90
65404;DHT22;52014;52.088;5.096;2023-02-28T07:37:56;3.70;99.90
65404;DHT22;52014;52.088;5.096;2023-02-28T07:40:22;3.80;99.90
65404;DHT22;52014;52.088;5.096;2023-02-28T07:42:47;3.80;99.90
65404;DHT22;52014;52.088;5.096;2023-02-28T07:45:13;3.80;99.90
65404;DHT22;52014;52.088;5.096;2023-02-28T07:47:38;3.80;99.90
65404;DHT22;52014;52.088;5.096;2023-02-28T07:50:04;3.90;99.90
65404;DHT22;52014;52.088;5.096;2023-02-28T07:52:30;3.90;99.90
65404;DHT22;52014;52.088;5.096;2023-02-28T07:54:55;3.80;99.90
65404;DHT22;52014;52.088;5.096;2023-02-28T07:57:21;3.90;99.90
65404;DHT22;52014;52.088;5.096;2023-02-28T07:59:47;3.90;99.90
65404;DHT22;52014;52.088;5.096;2023-02-28T08:02:16;3.90;99.90
65404;DHT22;52014;52.088;5.096;2023-02-28T08:04:42;3.90;99.90
65404;DHT22;52014;52.088;5.096;2023-02-28T08:07:08;3.90;99.90
65404;DHT22;52014;52.088;5.096;2023-02-28T08:09:33;4.00;99.90
65404;DHT22;52014;52.088;5.096;2023-02-28T08:11:59;4.00;99.90
65404;DHT22;52014;52.088;5.096;2023-02-28T08:14:25;4.00;99.90
65404;DHT22;52014;52.088;5.096;2023-02-28T08:16:50;4.10;99.90
65404;DHT22;52014;52.088;5.096;2023-02-28T08:19:16;4.10;99.90
65404;DHT22;52014;52.088;5.096;2023-02-28T08:21:41;4.10;99.90
65404;DHT22;52014;52.088;5.096;2023-02-28T08:24:07;4.10;99.90
65404;DHT22;52014;52.088;5.096;2023-02-28T08:26:32;4.10;99.90
65404;DHT22;52014;52.088;5.096;2023-02-28T08:28:58;4.20;99.90
65404;DHT22;52014;52.088;5.096;2023-02-28T08:31:23;4.20;99.90
65404;DHT22;52014;52.088;5.096;2023-02-28T08:33:49;4.20;99.90
65404;DHT22;52014;52.088;5.096;2023-02-28T08:36:17;4.30;99.90
65404;DHT22;52014;52.088;5.096;2023-02-28T08:38:42;4.30;99.90
65404;DHT22;52014;52.088;5.096;2023-02-28T08:41:09;4.30;99.90
65404;DHT22;52014;52.088;5.096;2023-02-28T08:43:35;4.40;99.90
65404;DHT22;52014;52.088;5.096;2023-02-28T08:46:01;4.40;99.90
65404;DHT22;52014;52.088;5.096;2023-02-28T08:48:27;4.40;99.90
65404;DHT22;52014;52.088;5.096;2023-02-28T08:51:09;4.40;99.90
65404;DHT22;52014;52.088;5.096;2023-02-28T08:53:35;4.20;99.90
65404;DHT22;52014;52.088;5.096;2023-02-28T08:56:02;4.20;99.90
65404;DHT22;52014;52.088;5.096;2023-02-28T08:58:28;4.20;99.90
65404;DHT22;52014;52.088;5.096;2023-02-28T09:00:53;4.20;99.90
65404;DHT22;52014;52.088;5.096;2023-02-28T09:03:19;4.40;99.90
65404;DHT22;52014;52.088;5.096;2023-02-28T09:05:55;4.50;99.90
65404;DHT22;52014;52.088;5.096;2023-02-28T09:08:21;4.30;99.90
65404;DHT22;52014;52.088;5.096;2023-02-28T09:10:46;4.30;99.90
65404;DHT22;52014;52.088;5.096;2023-02-28T09:13:12;4.40;99.90
65404;DHT22;52014;52.088;5.096;2023-02-28T09:15:38;4.40;99.90
65404;DHT22;52014;52.088;5.096;2023-02-28T09:18:03;4.30;99.90
65404;DHT22;52014;52.088;5.096;2023-02-28T09:20:29;4.10;99.90
65404;DHT22;52014;52.088;5.096;2023-02-28T09:22:54;4.10;99.90
65404;DHT22;52014;52.088;5.096;2023-02-28T09:25:20;4.20;99.90
65404;DHT22;52014;52.088;5.096;2023-02-28T09:27:45;4.30;99.90
65404;DHT22;52014;52.088;5.096;2023-02-28T09:30:11;4.20;99.90
65404;DHT22;52014;52.088;5.096;2023-02-28T09:32:36;4.20;99.90
65404;DHT22;52014;52.088;5.096;2023-02-28T09:35:02;4.30;99.90
65404;DHT22;52014;52.088;5.096;2023-02-28T09:37:27;4.30;99.90
65404;DHT22;52014;52.088;5.096;2023-02-28T09:39:54;4.40;99.90
65404;DHT22;52014;52.088;5.096;2023-02-28T09:42:30;4.30;99.90
65404;DHT22;52014;52.088;5.096;2023-02-28T09:44:56;4.20;99.90
65404;DHT22;52014;52.088;5.096;2023-02-28T09:47:33;4.20;99.90
65404;DHT22;52014;52.088;5.096;2023-02-28T09:50:15;4.30;99.90
65404;DHT22;52014;52.088;5.096;2023-02-28T09:52:43;4.50;99.90
65404;DHT22;52014;52.088;5.096;2023-02-28T09:55:18;4.50;99.90
65404;DHT22;52014;52.088;5.096;2023-02-28T09:57:44;4.50;99.90
65404;DHT22;52014;52.088;5.096;2023-02-28T10:00:13;4.60;99.90
65404;DHT22;52014;52.088;5.096;2023-02-28T10:05:14;4.90;99.90
65404;DHT22;52014;52.088;5.096;2023-02-28T10:10:19;5.00;99.90
65404;DHT22;52014;52.088;5.096;2023-02-28T10:12:46;5.20;99.90
65404;DHT22;52014;52.088;5.096;2023-02-28T10:15:15;5.20;99.90
65404;DHT22;52014;52.088;5.096;2023-02-28T10:17:42;5.30;99.90
65404;DHT22;52014;52.088;5.096;2023-02-28T10:20:13;5.30;99.90
65404;DHT22;52014;52.088;5.096;2023-02-28T10:25:17;5.10;99.90
65404;DHT22;52014;52.088;5.096;2023-02-28T10:27:44;5.20;99.90
65404;DHT22;52014;52.088;5.096;2023-02-28T10:30:09;5.30;99.90
65404;DHT22;52014;52.088;5.096;2023-02-28T10:32:39;5.40;99.90
65404;DHT22;52014;52.088;5.096;2023-02-28T10:35:18;5.50;99.90
65404;DHT22;52014;52.088;5.096;2023-02-28T10:37:45;5.60;99.90
65404;DHT22;52014;52.088;5.096;2023-02-28T10:40:33;5.60;99.90
65404;DHT22;52014;52.088;5.096;2023-02-28T10:45:26;5.70;99.90
65404;DHT22;52014;52.088;5.096;2023-02-28T10:47:56;5.80;99.90
65404;DHT22;52014;52.088;5.096;2023-02-28T10:50:36;6.00;99.90
65404;DHT22;52014;52.088;5.096;2023-02-28T10:53:09;5.90;99.90
65404;DHT22;52014;52.088;5.096;2023-02-28T10:55:39;5.80;99.90
65404;DHT22;52014;52.088;5.096;2023-02-28T10:58:17;5.90;99.90
65404;DHT22;52014;52.088;5.096;2023-02-28T11:00:45;5.90;99.90
65404;DHT22;52014;52.088;5.096;2023-02-28T11:05:55;6.10;99.90
65404;DHT22;52014;52.088;5.096;2023-02-28T11:08:21;6.20;99.90
65404;DHT22;52014;52.088;5.096;2023-02-28T11:10:59;6.30;99.90
65404;DHT22;52014;52.088;5.096;2023-02-28T11:13:27;6.30;99.90
65404;DHT22;52014;52.088;5.096;2023-02-28T11:15:54;6.10;99.90
65404;DHT22;52014;52.088;5.096;2023-02-28T11:20:55;6.10;99.90
65404;DHT22;52014;52.088;5.096;2023-02-28T11:23:21;6.10;99.90
65404;DHT22;52014;52.088;5.096;2023-02-28T11:25:50;6.00;99.90
65404;DHT22;52014;52.088;5.096;2023-02-28T11:35:50;6.00;99.90
65404;DHT22;52014;52.088;5.096;2023-02-28T11:38:16;6.00;99.90
65404;DHT22;52014;52.088;5.096;2023-02-28T11:40:55;5.90;99.90
65404;DHT22;52014;52.088;5.096;2023-02-28T11:43:46;6.00;99.90
65404;DHT22;52014;52.088;5.096;2023-02-28T11:51:15;6.00;99.90
65404;DHT22;52014;52.088;5.096;2023-02-28T11:56:31;5.80;99.90
65404;DHT22;52014;52.088;5.096;2023-02-28T11:59:14;5.90;99.90
65404;DHT22;52014;52.088;5.096;2023-02-28T12:09:56;6.00;99.90
65404;DHT22;52014;52.088;5.096;2023-02-28T12:15:05;6.00;99.90
65404;DHT22;52014;52.088;5.096;2023-02-28T12:17:43;6.00;99.90
65404;DHT22;52014;52.088;5.096;2023-02-28T12:25:43;5.90;99.90
65404;DHT22;52014;52.088;5.096;2023-02-28T12:28:14;5.90;99.90
65404;DHT22;52014;52.088;5.096;2023-02-28T12:30:42;5.90;99.90
65404;DHT22;52014;52.088;5.096;2023-02-28T12:33:14;5.90;99.90
65404;DHT22;52014;52.088;5.096;2023-02-28T12:35:47;5.90;99.90
65404;DHT22;52014;52.088;5.096;2023-02-28T12:38:14;5.90;99.90
65404;DHT22;52014;52.088;5.096;2023-02-28T12:40:47;6.00;99.90
65404;DHT22;52014;52.088;5.096;2023-02-28T12:43:15;6.20;99.90
65404;DHT22;52014;52.088;5.096;2023-02-28T12:45:43;6.20;99.90
65404;DHT22;52014;52.088;5.096;2023-02-28T12:48:11;6.20;99.90
65404;DHT22;52014;52.088;5.096;2023-02-28T12:50:40;6.20;99.90
65404;DHT22;52014;52.088;5.096;2023-02-28T12:55:57;6.10;99.90
65404;DHT22;52014;52.088;5.096;2023-02-28T12:58:35;6.10;99.90
65404;DHT22;52014;52.088;5.096;2023-02-28T13:08:52;6.20;99.90
65404;DHT22;52014;52.088;5.096;2023-02-28T13:11:31;6.10;99.90
65404;DHT22;52014;52.088;5.096;2023-02-28T13:14:03;6.20;99.90
65404;DHT22;52014;52.088;5.096;2023-02-28T13:19:16;6.20;99.90
65404;DHT22;52014;52.088;5.096;2023-02-28T13:21:43;6.30;99.90
65404;DHT22;52014;52.088;5.096;2023-02-28T13:24:10;6.20;99.90
65404;DHT22;52014;52.088;5.096;2023-02-28T13:29:02;6.20;99.90
65404;DHT22;52014;52.088;5.096;2023-02-28T13:31:29;6.20;99.90
65404;DHT22;52014;52.088;5.096;2023-02-28T13:36:28;6.20;99.90
65404;DHT22;52014;52.088;5.096;2023-02-28T13:39:00;6.30;99.90
65404;DHT22;52014;52.088;5.096;2023-02-28T13:52:12;6.40;99.90
65404;DHT22;52014;52.088;5.096;2023-02-28T13:57:35;6.40;99.90
65404;DHT22;52014;52.088;5.096;2023-02-28T14:00:13;6.40;99.90
65404;DHT22;52014;52.088;5.096;2023-02-28T14:05:26;6.30;99.90
65404;DHT22;52014;52.088;5.096;2023-02-28T14:07:58;6.30;99.90
65404;DHT22;52014;52.088;5.096;2023-02-28T14:10:39;6.30;99.90
65404;DHT22;52014;52.088;5.096;2023-02-28T14:13:13;6.30;99.90
65404;DHT22;52014;52.088;5.096;2023-02-28T14:15:40;6.30;99.90
65404;DHT22;52014;52.088;5.096;2023-02-28T14:18:13;6.30;99.90
65404;DHT22;52014;52.088;5.096;2023-02-28T14:20:39;6.30;99.90
65404;DHT22;52014;52.088;5.096;2023-02-28T14:25:55;6.30;99.90
65404;DHT22;52014;52.088;5.096;2023-02-28T14:36:09;6.40;99.90
65404;DHT22;52014;52.088;5.096;2023-02-28T14:38:37;6.40;99.90
65404;DHT22;52014;52.088;5.096;2023-02-28T14:41:06;6.40;99.90
65404;DHT22;52014;52.088;5.096;2023-02-28T14:43:47;6.40;99.90
65404;DHT22;52014;52.088;5.096;2023-02-28T14:46:12;6.40;99.90
65404;DHT22;52014;52.088;5.096;2023-02-28T14:48:38;6.40;99.90
65404;DHT22;52014;52.088;5.096;2023-02-28T14:51:04;6.40;99.90
65404;DHT22;52014;52.088;5.096;2023-02-28T14:53:30;6.40;99.90
65404;DHT22;52014;52.088;5.096;2023-02-28T14:56:00;6.40;99.90
65404;DHT22;52014;52.088;5.096;2023-02-28T14:58:26;6.40;99.90
65404;DHT22;52014;52.088;5.096;2023-02-28T15:00:53;6.40;99.90
65404;DHT22;52014;52.088;5.096;2023-02-28T15:03:35;6.40;99.90
65404;DHT22;52014;52.088;5.096;2023-02-28T15:06:02;6.40;99.90
65404;DHT22;52014;52.088;5.096;2023-02-28T15:08:28;6.30;99.90
65404;DHT22;52014;52.088;5.096;2023-02-28T15:13:20;6.30;99.90
65404;DHT22;52014;52.088;5.096;2023-02-28T15:15:56;6.30;99.90
65404;DHT22;52014;52.088;5.096;2023-02-28T15:18:27;6.30;99.90
65404;DHT22;52014;52.088;5.096;2023-02-28T15:20:54;6.30;99.90
65404;DHT22;52014;52.088;5.096;2023-02-28T15:23:20;6.40;99.90
65404;DHT22;52014;52.088;5.096;2023-02-28T15:25:47;6.40;99.90
65404;DHT22;52014;52.088;5.096;2023-02-28T15:28:14;6.40;99.90
65404;DHT22;52014;52.088;5.096;2023-02-28T15:30:49;6.30;99.90
65404;DHT22;52014;52.088;5.096;2023-02-28T15:35:44;6.30;99.90
65404;DHT22;52014;52.088;5.096;2023-02-28T15:40:40;6.30;99.90
65404;DHT22;52014;52.088;5.096;2023-02-28T15:45:32;6.30;99.90
65404;DHT22;52014;52.088;5.096;2023-02-28T15:48:00;6.30;99.90
65404;DHT22;52014;52.088;5.096;2023-02-28T15:50:27;6.20;99.90
65404;DHT22;52014;52.088;5.096;2023-02-28T15:52:52;6.20;99.90
65404;DHT22;52014;52.088;5.096;2023-02-28T15:55:19;6.30;99.90
65404;DHT22;52014;52.088;5.096;2023-02-28T15:57:45;6.20;99.90
65404;DHT22;52014;52.088;5.096;2023-02-28T16:00:15;6.20;99.90
65404;DHT22;52014;52.088;5.096;2023-02-28T16:02:41;6.20;99.90
65404;DHT22;52014;52.088;5.096;2023-02-28T16:07:38;6.10;99.90
65404;DHT22;52014;52.088;5.096;2023-02-28T16:10:05;6.10;99.90
65404;DHT22;52014;52.088;5.096;2023-02-28T16:12:31;6.10;99.90
65404;DHT22;52014;52.088;5.096;2023-02-28T16:14:58;6.00;99.90
65404;DHT22;52014;52.088;5.096;2023-02-28T16:17:27;6.00;99.90
65404;DHT22;52014;52.088;5.096;2023-02-28T16:19:54;6.00;99.90
65404;DHT22;52014;52.088;5.096;2023-02-28T16:22:20;6.00;99.90
65404;DHT22;52014;52.088;5.096;2023-02-28T16:24:45;6.00;99.90
65404;DHT22;52014;52.088;5.096;2023-02-28T16:30:05;5.90;99.90
65404;DHT22;52014;52.088;5.096;2023-02-28T16:32:31;5.80;99.90
65404;DHT22;52014;52.088;5.096;2023-02-28T16:34:57;5.80;99.90
65404;DHT22;52014;52.088;5.096;2023-02-28T16:37:23;5.90;99.90
65404;DHT22;52014;52.088;5.096;2023-02-28T16:39:48;5.80;99.90
65404;DHT22;52014;52.088;5.096;2023-02-28T16:42:23;5.80;99.90
65404;DHT22;52014;52.088;5.096;2023-02-28T16:44:50;5.80;99.90
65404;DHT22;52014;52.088;5.096;2023-02-28T16:47:16;5.70;99.90
65404;DHT22;52014;52.088;5.096;2023-02-28T16:49:41;5.70;99.90
65404;DHT22;52014;52.088;5.096;2023-02-28T16:52:08;5.70;99.90
65404;DHT22;52014;52.088;5.096;2023-02-28T16:54:34;5.80;99.90
65404;DHT22;52014;52.088;5.096;2023-02-28T16:57:00;5.70;99.90
65404;DHT22;52014;52.088;5.096;2023-02-28T16:59:26;5.70;99.90
65404;DHT22;52014;52.088;5.096;2023-02-28T17:01:51;5.70;99.90
65404;DHT22;52014;52.088;5.096;2023-02-28T17:04:17;5.60;99.90
65404;DHT22;52014;52.088;5.096;2023-02-28T17:06:43;5.60;99.90
65404;DHT22;52014;52.088;5.096;2023-02-28T17:09:22;5.60;99.90
65404;DHT22;52014;52.088;5.096;2023-02-28T17:11:48;5.50;99.90
65404;DHT22;52014;52.088;5.096;2023-02-28T17:14:14;5.60;99.90
65404;DHT22;52014;52.088;5.096;2023-02-28T17:16:39;5.50;99.90
65404;DHT22;52014;52.088;5.096;2023-02-28T17:19:06;5.40;99.90
65404;DHT22;52014;52.088;5.096;2023-02-28T17:21:34;5.40;99.90
65404;DHT22;52014;52.088;5.096;2023-02-28T17:24:00;5.40;99.90
65404;DHT22;52014;52.088;5.096;2023-02-28T17:26:26;5.30;99.90
65404;DHT22;52014;52.088;5.096;2023-02-28T17:28:53;5.30;99.90
65404;DHT22;52014;52.088;5.096;2023-02-28T17:31:21;5.30;99.90
65404;DHT22;52014;52.088;5.096;2023-02-28T17:33:46;5.20;99.90
65404;DHT22;52014;52.088;5.096;2023-02-28T17:36:15;5.20;99.90
65404;DHT22;52014;52.088;5.096;2023-02-28T17:38:41;5.20;99.90
65404;DHT22;52014;52.088;5.096;2023-02-28T17:41:08;5.10;99.90
65404;DHT22;52014;52.088;5.096;2023-02-28T17:43:34;5.10;99.90
65404;DHT22;52014;52.088;5.096;2023-02-28T17:46:00;5.10;99.90
65404;DHT22;52014;52.088;5.096;2023-02-28T17:48:25;5.10;99.90
65404;DHT22;52014;52.088;5.096;2023-02-28T17:50:51;5.20;99.90
65404;DHT22;52014;52.088;5.096;2023-02-28T17:53:16;5.10;99.90
65404;DHT22;52014;52.088;5.096;2023-02-28T17:55:42;5.00;99.90
65404;DHT22;52014;52.088;5.096;2023-02-28T17:58:09;5.00;99.90
65404;DHT22;52014;52.088;5.096;2023-02-28T18:00:35;5.00;99.90
65404;DHT22;52014;52.088;5.096;2023-02-28T18:03:01;4.90;99.90